sensor_id;sensor_type;location;lat;lon;timestamp;P1;durP1;ratioP1;P2;durP2;ratioP2
73684;SDS011;61985;51.070;14.064;2023-06-10T00:00:37;9.77;;;7.03;;
73684;SDS011;61985;51.070;14.064;2023-06-10T00:03:02;11.18;;;7.22;;
73684;SDS011;61985;51.070;14.064;2023-06-10T00:05:28;10.70;;;7.45;;
73684;SDS011;61985;51.070;14.064;2023-06-10T00:07:56;11.45;;;7.07;;
73684;SDS011;61985;51.070;14.064;2023-06-10T00:10:22;10.40;;;6.75;;
73684;SDS011;61985;51.070;14.064;2023-06-10T00:12:49;13.30;;;7.20;;
73684;SDS011;61985;51.070;14.064;2023-06-10T00:15:14;9.52;;;7.05;;
73684;SDS011;61985;51.070;14.064;2023-06-10T00:17:40;10.98;;;7.45;;
73684;SDS011;61985;51.070;14.064;2023-06-10T00:20:09;10.48;;;7.13;;
73684;SDS011;61985;51.070;14.064;2023-06-10T00:22:37;12.73;;;7.32;;
73684;SDS011;61985;51.070;14.064;2023-06-10T00:25:03;13.10;;;8.35;;
73684;SDS011;61985;51.070;14.064;2023-06-10T00:27:30;10.80;;;7.78;;
73684;SDS011;61985;51.070;14.064;2023-06-10T00:30:00;12.07;;;8.23;;
73684;SDS011;61985;51.070;14.064;2023-06-10T00:32:29;9.98;;;7.43;;
73684;SDS011;61985;51.070;14.064;2023-06-10T00:34:56;11.43;;;7.63;;
73684;SDS011;61985;51.070;14.064;2023-06-10T00:37:21;11.02;;;7.68;;
73684;SDS011;61985;51.070;14.064;2023-06-10T00:39:47;14.32;;;7.85;;
73684;SDS011;61985;51.070;14.064;2023-06-10T00:42:12;10.20;;;7.32;;
73684;SDS011;61985;51.070;14.064;2023-06-10T00:44:38;10.20;;;7.22;;
73684;SDS011;61985;51.070;14.064;2023-06-10T00:47:03;10.48;;;7.63;;
73684;SDS011;61985;51.070;14.064;2023-06-10T00:49:28;13.00;;;7.78;;
73684;SDS011;61985;51.070;14.064;2023-06-10T00:51:54;10.55;;;7.32;;
73684;SDS011;61985;51.070;14.064;2023-06-10T00:54:19;10.55;;;7.18;;
73684;SDS011;61985;51.070;14.064;2023-06-10T00:56:45;10.68;;;7.18;;
73684;SDS011;61985;51.070;14.064;2023-06-10T00:59:12;10.40;;;6.45;;
73684;SDS011;61985;51.070;14.064;2023-06-10T01:01:39;9.88;;;6.88;;
73684;SDS011;61985;51.070;14.064;2023-06-10T01:04:04;11.18;;;7.03;;
73684;SDS011;61985;51.070;14.064;2023-06-10T01:09:02;11.15;;;7.50;;
73684;SDS011;61985;51.070;14.064;2023-06-10T01:11:40;9.57;;;6.80;;
73684;SDS011;61985;51.070;14.064;2023-06-10T01:14:11;9.55;;;6.40;;
73684;SDS011;61985;51.070;14.064;2023-06-10T01:16:39;10.02;;;6.65;;
73684;SDS011;61985;51.070;14.064;2023-06-10T01:19:06;9.77;;;5.97;;
73684;SDS011;61985;51.070;14.064;2023-06-10T01:21:32;9.98;;;6.65;;
73684;SDS011;61985;51.070;14.064;2023-06-10T01:23:58;11.18;;;6.72;;
73684;SDS011;61985;51.070;14.064;2023-06-10T01:26:28;9.70;;;6.70;;
73684;SDS011;61985;51.070;14.064;2023-06-10T01:28:58;10.00;;;6.40;;
73684;SDS011;61985;51.070;14.064;2023-06-10T01:33:59;9.68;;;6.07;;
73684;SDS011;61985;51.070;14.064;2023-06-10T01:36:27;12.88;;;6.90;;
73684;SDS011;61985;51.070;14.064;2023-06-10T01:38:54;8.57;;;6.47;;
73684;SDS011;61985;51.070;14.064;2023-06-10T01:41:20;11.48;;;6.65;;
73684;SDS011;61985;51.070;14.064;2023-06-10T01:43:46;11.10;;;7.00;;
73684;SDS011;61985;51.070;14.064;2023-06-10T01:46:13;10.90;;;7.15;;
73684;SDS011;61985;51.070;14.064;2023-06-10T01:48:39;11.75;;;6.97;;
73684;SDS011;61985;51.070;14.064;2023-06-10T01:51:04;11.70;;;7.60;;
73684;SDS011;61985;51.070;14.064;2023-06-10T01:53:30;10.15;;;7.20;;
73684;SDS011;61985;51.070;14.064;2023-06-10T01:55:55;12.80;;;7.22;;
73684;SDS011;61985;51.070;14.064;2023-06-10T01:58:21;8.85;;;6.82;;
73684;SDS011;61985;51.070;14.064;2023-06-10T02:00:46;9.98;;;7.00;;
73684;SDS011;61985;51.070;14.064;2023-06-10T02:03:12;11.18;;;7.18;;
73684;SDS011;61985;51.070;14.064;2023-06-10T02:05:37;8.93;;;6.43;;
73684;SDS011;61985;51.070;14.064;2023-06-10T02:08:03;9.90;;;6.60;;
73684;SDS011;61985;51.070;14.064;2023-06-10T02:10:28;9.98;;;6.05;;
73684;SDS011;61985;51.070;14.064;2023-06-10T02:12:54;11.38;;;6.50;;
73684;SDS011;61985;51.070;14.064;2023-06-10T02:15:20;8.75;;;6.40;;
73684;SDS011;61985;51.070;14.064;2023-06-10T02:17:45;9.18;;;6.35;;
73684;SDS011;61985;51.070;14.064;2023-06-10T02:20:10;9.85;;;6.57;;
73684;SDS011;61985;51.070;14.064;2023-06-10T02:22:37;10.32;;;6.93;;
73684;SDS011;61985;51.070;14.064;2023-06-10T02:25:03;13.10;;;6.78;;
73684;SDS011;61985;51.070;14.064;2023-06-10T02:27:29;8.18;;;6.13;;
73684;SDS011;61985;51.070;14.064;2023-06-10T02:29:55;11.45;;;7.07;;
73684;SDS011;61985;51.070;14.064;2023-06-10T02:32:21;11.02;;;6.00;;
73684;SDS011;61985;51.070;14.064;2023-06-10T02:34:46;9.02;;;5.93;;
73684;SDS011;61985;51.070;14.064;2023-06-10T02:37:12;10.00;;;6.50;;
73684;SDS011;61985;51.070;14.064;2023-06-10T02:39:37;9.60;;;6.07;;
73684;SDS011;61985;51.070;14.064;2023-06-10T02:42:03;10.23;;;6.35;;
73684;SDS011;61985;51.070;14.064;2023-06-10T02:44:28;8.10;;;6.32;;
73684;SDS011;61985;51.070;14.064;2023-06-10T02:46:54;9.32;;;6.22;;
73684;SDS011;61985;51.070;14.064;2023-06-10T02:49:19;12.15;;;6.18;;
73684;SDS011;61985;51.070;14.064;2023-06-10T02:51:44;10.00;;;6.30;;
73684;SDS011;61985;51.070;14.064;2023-06-10T02:54:10;9.98;;;6.22;;
73684;SDS011;61985;51.070;14.064;2023-06-10T02:56:35;8.30;;;6.40;;
73684;SDS011;61985;51.070;14.064;2023-06-10T02:59:01;9.23;;;7.00;;
73684;SDS011;61985;51.070;14.064;2023-06-10T03:01:27;9.68;;;7.07;;
73684;SDS011;61985;51.070;14.064;2023-06-10T03:03:52;7.78;;;6.10;;
73684;SDS011;61985;51.070;14.064;2023-06-10T03:06:18;10.20;;;6.22;;
73684;SDS011;61985;51.070;14.064;2023-06-10T03:08:43;10.00;;;6.65;;
73684;SDS011;61985;51.070;14.064;2023-06-10T03:11:10;10.63;;;6.40;;
73684;SDS011;61985;51.070;14.064;2023-06-10T03:13:36;11.50;;;6.50;;
73684;SDS011;61985;51.070;14.064;2023-06-10T03:16:01;11.32;;;6.45;;
73684;SDS011;61985;51.070;14.064;2023-06-10T03:18:28;8.63;;;6.03;;
73684;SDS011;61985;51.070;14.064;2023-06-10T03:20:56;10.73;;;6.35;;
73684;SDS011;61985;51.070;14.064;2023-06-10T03:23:22;9.88;;;6.63;;
73684;SDS011;61985;51.070;14.064;2023-06-10T03:25:48;10.50;;;6.93;;
73684;SDS011;61985;51.070;14.064;2023-06-10T03:28:13;10.50;;;6.78;;
73684;SDS011;61985;51.070;14.064;2023-06-10T03:30:39;9.73;;;6.22;;
73684;SDS011;61985;51.070;14.064;2023-06-10T03:33:04;11.90;;;7.25;;
73684;SDS011;61985;51.070;14.064;2023-06-10T03:35:30;10.57;;;6.82;;
73684;SDS011;61985;51.070;14.064;2023-06-10T03:37:57;9.45;;;6.63;;
73684;SDS011;61985;51.070;14.064;2023-06-10T03:40:22;10.18;;;7.32;;
73684;SDS011;61985;51.070;14.064;2023-06-10T03:42:48;10.10;;;7.32;;
73684;SDS011;61985;51.070;14.064;2023-06-10T03:45:13;10.30;;;6.88;;
73684;SDS011;61985;51.070;14.064;2023-06-10T03:47:39;9.77;;;6.53;;
73684;SDS011;61985;51.070;14.064;2023-06-10T03:50:05;12.10;;;7.57;;
73684;SDS011;61985;51.070;14.064;2023-06-10T03:52:33;11.18;;;6.95;;
73684;SDS011;61985;51.070;14.064;2023-06-10T03:54:58;9.85;;;6.60;;
73684;SDS011;61985;51.070;14.064;2023-06-10T03:57:24;8.90;;;6.38;;
73684;SDS011;61985;51.070;14.064;2023-06-10T03:59:49;9.10;;;6.38;;
73684;SDS011;61985;51.070;14.064;2023-06-10T04:02:15;10.63;;;6.57;;
73684;SDS011;61985;51.070;14.064;2023-06-10T04:04:41;8.68;;;6.53;;
73684;SDS011;61985;51.070;14.064;2023-06-10T04:07:06;9.13;;;6.22;;
73684;SDS011;61985;51.070;14.064;2023-06-10T04:09:33;8.95;;;6.57;;
73684;SDS011;61985;51.070;14.064;2023-06-10T04:11:58;11.57;;;6.15;;
73684;SDS011;61985;51.070;14.064;2023-06-10T04:14:23;10.68;;;6.55;;
73684;SDS011;61985;51.070;14.064;2023-06-10T04:16:49;9.60;;;6.55;;
73684;SDS011;61985;51.070;14.064;2023-06-10T04:19:15;10.55;;;6.68;;
73684;SDS011;61985;51.070;14.064;2023-06-10T04:21:41;8.32;;;5.97;;
73684;SDS011;61985;51.070;14.064;2023-06-10T04:24:06;9.48;;;6.72;;
73684;SDS011;61985;51.070;14.064;2023-06-10T04:26:32;11.43;;;6.30;;
73684;SDS011;61985;51.070;14.064;2023-06-10T04:28:58;11.43;;;6.65;;
73684;SDS011;61985;51.070;14.064;2023-06-10T04:31:24;9.13;;;6.30;;
73684;SDS011;61985;51.070;14.064;2023-06-10T04:33:49;10.27;;;6.22;;
73684;SDS011;61985;51.070;14.064;2023-06-10T04:36:14;9.75;;;5.95;;
73684;SDS011;61985;51.070;14.064;2023-06-10T04:38:39;9.25;;;6.00;;
73684;SDS011;61985;51.070;14.064;2023-06-10T04:41:06;10.20;;;5.70;;
73684;SDS011;61985;51.070;14.064;2023-06-10T04:43:31;12.80;;;6.30;;
73684;SDS011;61985;51.070;14.064;2023-06-10T04:45:57;8.63;;;6.10;;
73684;SDS011;61985;51.070;14.064;2023-06-10T04:48:22;10.23;;;5.20;;
73684;SDS011;61985;51.070;14.064;2023-06-10T04:50:49;8.00;;;5.10;;
73684;SDS011;61985;51.070;14.064;2023-06-10T04:53:15;9.98;;;5.13;;
73684;SDS011;61985;51.070;14.064;2023-06-10T04:55:41;7.10;;;5.07;;
73684;SDS011;61985;51.070;14.064;2023-06-10T04:58:06;12.20;;;5.40;;
73684;SDS011;61985;51.070;14.064;2023-06-10T05:00:32;9.43;;;5.03;;
73684;SDS011;61985;51.070;14.064;2023-06-10T05:02:57;7.35;;;5.22;;
73684;SDS011;61985;51.070;14.064;2023-06-10T05:05:22;9.38;;;4.80;;
73684;SDS011;61985;51.070;14.064;2023-06-10T05:07:48;6.88;;;4.60;;
73684;SDS011;61985;51.070;14.064;2023-06-10T05:10:13;6.30;;;4.63;;
73684;SDS011;61985;51.070;14.064;2023-06-10T05:12:38;8.45;;;4.40;;
73684;SDS011;61985;51.070;14.064;2023-06-10T05:15:05;6.60;;;4.40;;
73684;SDS011;61985;51.070;14.064;2023-06-10T05:17:31;6.40;;;4.35;;
73684;SDS011;61985;51.070;14.064;2023-06-10T05:19:57;6.65;;;4.70;;
73684;SDS011;61985;51.070;14.064;2023-06-10T05:22:22;5.53;;;3.97;;
73684;SDS011;61985;51.070;14.064;2023-06-10T05:24:49;6.30;;;4.28;;
73684;SDS011;61985;51.070;14.064;2023-06-10T05:27:15;6.28;;;4.50;;
73684;SDS011;61985;51.070;14.064;2023-06-10T05:29:41;6.13;;;4.18;;
73684;SDS011;61985;51.070;14.064;2023-06-10T05:32:06;6.10;;;4.15;;
73684;SDS011;61985;51.070;14.064;2023-06-10T05:34:32;7.22;;;4.38;;
73684;SDS011;61985;51.070;14.064;2023-06-10T05:36:57;6.32;;;4.50;;
73684;SDS011;61985;51.070;14.064;2023-06-10T05:39:23;7.15;;;4.82;;
73684;SDS011;61985;51.070;14.064;2023-06-10T05:41:48;11.77;;;4.63;;
73684;SDS011;61985;51.070;14.064;2023-06-10T05:44:14;6.97;;;4.70;;
73684;SDS011;61985;51.070;14.064;2023-06-10T05:46:39;7.22;;;4.30;;
73684;SDS011;61985;51.070;14.064;2023-06-10T05:49:04;7.82;;;4.38;;
73684;SDS011;61985;51.070;14.064;2023-06-10T05:51:30;6.72;;;4.50;;
73684;SDS011;61985;51.070;14.064;2023-06-10T05:53:55;6.28;;;4.10;;
73684;SDS011;61985;51.070;14.064;2023-06-10T05:56:22;6.28;;;4.25;;
73684;SDS011;61985;51.070;14.064;2023-06-10T05:58:47;7.53;;;4.82;;
73684;SDS011;61985;51.070;14.064;2023-06-10T06:01:14;9.98;;;4.38;;
73684;SDS011;61985;51.070;14.064;2023-06-10T06:03:39;5.85;;;4.32;;
73684;SDS011;61985;51.070;14.064;2023-06-10T06:06:05;7.65;;;4.55;;
73684;SDS011;61985;51.070;14.064;2023-06-10T06:08:30;6.63;;;4.30;;
73684;SDS011;61985;51.070;14.064;2023-06-10T06:10:55;7.72;;;4.22;;
73684;SDS011;61985;51.070;14.064;2023-06-10T06:13:21;6.20;;;4.22;;
73684;SDS011;61985;51.070;14.064;2023-06-10T06:15:46;6.60;;;4.57;;
73684;SDS011;61985;51.070;14.064;2023-06-10T06:18:12;7.03;;;5.30;;
73684;SDS011;61985;51.070;14.064;2023-06-10T06:20:38;8.77;;;4.50;;
73684;SDS011;61985;51.070;14.064;2023-06-10T06:23:03;7.10;;;4.50;;
73684;SDS011;61985;51.070;14.064;2023-06-10T06:25:29;6.97;;;4.95;;
73684;SDS011;61985;51.070;14.064;2023-06-10T06:27:54;5.88;;;4.57;;
73684;SDS011;61985;51.070;14.064;2023-06-10T06:30:20;6.88;;;4.75;;
73684;SDS011;61985;51.070;14.064;2023-06-10T06:32:45;10.18;;;5.00;;
73684;SDS011;61985;51.070;14.064;2023-06-10T06:35:10;7.90;;;5.00;;
73684;SDS011;61985;51.070;14.064;2023-06-10T06:37:36;7.97;;;5.22;;
73684;SDS011;61985;51.070;14.064;2023-06-10T06:40:04;9.13;;;5.15;;
73684;SDS011;61985;51.070;14.064;2023-06-10T06:42:31;8.75;;;5.45;;
73684;SDS011;61985;51.070;14.064;2023-06-10T06:44:56;7.55;;;5.43;;
73684;SDS011;61985;51.070;14.064;2023-06-10T06:47:21;8.90;;;5.25;;
73684;SDS011;61985;51.070;14.064;2023-06-10T06:49:57;8.43;;;5.40;;
73684;SDS011;61985;51.070;14.064;2023-06-10T06:52:22;7.30;;;5.50;;
73684;SDS011;61985;51.070;14.064;2023-06-10T06:54:51;8.85;;;5.50;;
73684;SDS011;61985;51.070;14.064;2023-06-10T06:57:16;10.30;;;5.20;;
73684;SDS011;61985;51.070;14.064;2023-06-10T06:59:42;7.40;;;5.65;;
73684;SDS011;61985;51.070;14.064;2023-06-10T07:02:07;8.50;;;5.68;;
73684;SDS011;61985;51.070;14.064;2023-06-10T07:04:32;8.82;;;5.10;;
73684;SDS011;61985;51.070;14.064;2023-06-10T07:07:04;9.13;;;5.75;;
73684;SDS011;61985;51.070;14.064;2023-06-10T07:33:28;8.93;;;5.32;;
73684;SDS011;61985;51.070;14.064;2023-06-10T07:36:02;9.50;;;5.45;;
73684;SDS011;61985;51.070;14.064;2023-06-10T07:38:27;12.00;;;5.50;;
73684;SDS011;61985;51.070;14.064;2023-06-10T10:27:01;7.28;;;5.30;;
73684;SDS011;61985;51.070;14.064;2023-06-10T10:32:04;9.70;;;5.15;;
73684;SDS011;61985;51.070;14.064;2023-06-10T10:37:06;9.38;;;5.47;;
73684;SDS011;61985;51.070;14.064;2023-06-10T10:39:33;7.47;;;5.43;;
73684;SDS011;61985;51.070;14.064;2023-06-10T10:41:59;6.55;;;5.30;;
73684;SDS011;61985;51.070;14.064;2023-06-10T10:44:25;10.35;;;5.70;;
73684;SDS011;61985;51.070;14.064;2023-06-10T10:46:51;8.38;;;5.28;;
73684;SDS011;61985;51.070;14.064;2023-06-10T10:49:19;10.25;;;6.10;;
73684;SDS011;61985;51.070;14.064;2023-06-10T10:51:55;7.15;;;5.30;;
73684;SDS011;61985;51.070;14.064;2023-06-10T10:54:30;10.48;;;5.82;;
73684;SDS011;61985;51.070;14.064;2023-06-10T10:59:58;10.47;;;5.60;;
73684;SDS011;61985;51.070;14.064;2023-06-10T11:05:03;6.97;;;5.55;;
73684;SDS011;61985;51.070;14.064;2023-06-10T11:07:30;10.43;;;5.60;;
73684;SDS011;61985;51.070;14.064;2023-06-10T11:10:04;8.35;;;5.70;;
73684;SDS011;61985;51.070;14.064;2023-06-10T11:12:53;7.90;;;5.70;;
73684;SDS011;61985;51.070;14.064;2023-06-10T11:15:20;9.30;;;5.85;;
73684;SDS011;61985;51.070;14.064;2023-06-10T11:23:34;7.68;;;5.72;;
73684;SDS011;61985;51.070;14.064;2023-06-10T11:26:09;13.45;;;5.88;;
73684;SDS011;61985;51.070;14.064;2023-06-10T11:31:19;7.95;;;5.45;;
73684;SDS011;61985;51.070;14.064;2023-06-10T11:33:53;8.90;;;5.70;;
73684;SDS011;61985;51.070;14.064;2023-06-10T11:36:24;11.10;;;5.63;;
73684;SDS011;61985;51.070;14.064;2023-06-10T11:38:55;10.98;;;5.97;;
73684;SDS011;61985;51.070;14.064;2023-06-10T11:41:27;9.20;;;4.97;;
73684;SDS011;61985;51.070;14.064;2023-06-10T11:43:57;10.02;;;5.43;;
73684;SDS011;61985;51.070;14.064;2023-06-10T11:46:26;9.02;;;5.25;;
73684;SDS011;61985;51.070;14.064;2023-06-10T11:48:56;10.82;;;5.15;;
73684;SDS011;61985;51.070;14.064;2023-06-10T11:51:27;11.43;;;5.70;;
73684;SDS011;61985;51.070;14.064;2023-06-10T11:53:57;9.75;;;5.80;;
73684;SDS011;61985;51.070;14.064;2023-06-10T11:56:24;10.38;;;5.40;;
73684;SDS011;61985;51.070;14.064;2023-06-10T11:58:56;14.45;;;5.80;;
73684;SDS011;61985;51.070;14.064;2023-06-10T12:01:23;7.80;;;5.32;;
73684;SDS011;61985;51.070;14.064;2023-06-10T12:04:07;10.98;;;6.03;;
73684;SDS011;61985;51.070;14.064;2023-06-10T12:06:41;8.23;;;6.03;;
73684;SDS011;61985;51.070;14.064;2023-06-10T12:09:19;9.15;;;5.80;;
73684;SDS011;61985;51.070;14.064;2023-06-10T12:11:45;9.40;;;6.03;;
73684;SDS011;61985;51.070;14.064;2023-06-10T12:14:15;9.55;;;5.90;;
73684;SDS011;61985;51.070;14.064;2023-06-10T12:16:40;10.27;;;6.32;;
73684;SDS011;61985;51.070;14.064;2023-06-10T12:19:12;8.85;;;5.65;;
73684;SDS011;61985;51.070;14.064;2023-06-10T12:21:38;9.23;;;6.00;;
73684;SDS011;61985;51.070;14.064;2023-06-10T12:24:10;12.32;;;6.32;;
73684;SDS011;61985;51.070;14.064;2023-06-10T12:26:40;14.68;;;5.75;;
73684;SDS011;61985;51.070;14.064;2023-06-10T12:34:18;8.40;;;5.90;;
73684;SDS011;61985;51.070;14.064;2023-06-10T12:36:48;13.98;;;5.50;;
73684;SDS011;61985;51.070;14.064;2023-06-10T12:39:14;10.13;;;5.40;;
73684;SDS011;61985;51.070;14.064;2023-06-10T12:41:39;12.68;;;5.60;;
73684;SDS011;61985;51.070;14.064;2023-06-10T12:44:05;9.30;;;5.80;;
73684;SDS011;61985;51.070;14.064;2023-06-10T12:46:36;7.45;;;5.57;;
73684;SDS011;61985;51.070;14.064;2023-06-10T12:49:02;8.68;;;5.63;;
73684;SDS011;61985;51.070;14.064;2023-06-10T12:51:27;7.55;;;5.65;;
73684;SDS011;61985;51.070;14.064;2023-06-10T12:53:53;21.63;;;5.80;;
73684;SDS011;61985;51.070;14.064;2023-06-10T12:56:18;10.60;;;4.72;;
73684;SDS011;61985;51.070;14.064;2023-06-10T12:58:43;6.30;;;4.90;;
73684;SDS011;61985;51.070;14.064;2023-06-10T13:01:09;7.50;;;4.72;;
73684;SDS011;61985;51.070;14.064;2023-06-10T13:03:34;8.73;;;4.80;;
73684;SDS011;61985;51.070;14.064;2023-06-10T13:05:59;9.70;;;4.70;;
73684;SDS011;61985;51.070;14.064;2023-06-10T13:08:25;6.88;;;4.05;;
73684;SDS011;61985;51.070;14.064;2023-06-10T13:10:50;6.40;;;4.35;;
73684;SDS011;61985;51.070;14.064;2023-06-10T13:13:15;9.32;;;4.15;;
73684;SDS011;61985;51.070;14.064;2023-06-10T13:15:41;8.38;;;4.50;;
73684;SDS011;61985;51.070;14.064;2023-06-10T13:18:06;6.95;;;4.60;;
73684;SDS011;61985;51.070;14.064;2023-06-10T13:20:32;9.35;;;4.60;;
73684;SDS011;61985;51.070;14.064;2023-06-10T13:22:57;8.93;;;4.63;;
73684;SDS011;61985;51.070;14.064;2023-06-10T13:25:23;6.90;;;3.95;;
73684;SDS011;61985;51.070;14.064;2023-06-10T13:27:48;7.03;;;4.00;;
73684;SDS011;61985;51.070;14.064;2023-06-10T13:30:13;7.80;;;4.30;;
73684;SDS011;61985;51.070;14.064;2023-06-10T13:32:39;7.28;;;4.35;;
73684;SDS011;61985;51.070;14.064;2023-06-10T13:35:04;6.50;;;4.45;;
73684;SDS011;61985;51.070;14.064;2023-06-10T13:37:30;7.97;;;4.25;;
73684;SDS011;61985;51.070;14.064;2023-06-10T13:39:55;6.78;;;4.20;;
73684;SDS011;61985;51.070;14.064;2023-06-10T13:42:21;6.55;;;4.13;;
73684;SDS011;61985;51.070;14.064;2023-06-10T13:44:46;8.40;;;4.55;;
73684;SDS011;61985;51.070;14.064;2023-06-10T13:47:13;6.05;;;4.13;;
73684;SDS011;61985;51.070;14.064;2023-06-10T13:49:39;5.85;;;4.07;;
73684;SDS011;61985;51.070;14.064;2023-06-10T13:52:05;7.97;;;4.07;;
73684;SDS011;61985;51.070;14.064;2023-06-10T13:54:31;5.78;;;4.43;;
73684;SDS011;61985;51.070;14.064;2023-06-10T13:56:56;7.03;;;4.35;;
73684;SDS011;61985;51.070;14.064;2023-06-10T13:59:22;11.30;;;4.63;;
73684;SDS011;61985;51.070;14.064;2023-06-10T14:01:47;6.43;;;4.35;;
73684;SDS011;61985;51.070;14.064;2023-06-10T14:04:12;6.40;;;3.95;;
73684;SDS011;61985;51.070;14.064;2023-06-10T14:06:38;6.22;;;4.57;;
73684;SDS011;61985;51.070;14.064;2023-06-10T14:09:04;7.13;;;4.80;;
73684;SDS011;61985;51.070;14.064;2023-06-10T14:11:29;7.55;;;4.68;;
73684;SDS011;61985;51.070;14.064;2023-06-10T14:13:56;6.65;;;4.35;;
73684;SDS011;61985;51.070;14.064;2023-06-10T14:16:22;8.50;;;4.70;;
73684;SDS011;61985;51.070;14.064;2023-06-10T14:18:48;8.25;;;4.65;;
73684;SDS011;61985;51.070;14.064;2023-06-10T14:21:14;6.20;;;4.60;;
73684;SDS011;61985;51.070;14.064;2023-06-10T14:23:40;7.65;;;4.95;;
73684;SDS011;61985;51.070;14.064;2023-06-10T14:26:06;8.45;;;5.25;;
73684;SDS011;61985;51.070;14.064;2023-06-10T14:28:32;8.75;;;5.07;;
73684;SDS011;61985;51.070;14.064;2023-06-10T14:30:58;8.43;;;5.10;;
73684;SDS011;61985;51.070;14.064;2023-06-10T14:33:23;9.23;;;5.00;;
73684;SDS011;61985;51.070;14.064;2023-06-10T14:35:49;11.57;;;5.40;;
73684;SDS011;61985;51.070;14.064;2023-06-10T14:38:16;12.52;;;5.85;;
73684;SDS011;61985;51.070;14.064;2023-06-10T14:40:41;8.88;;;5.28;;
73684;SDS011;61985;51.070;14.064;2023-06-10T14:43:07;8.45;;;5.47;;
73684;SDS011;61985;51.070;14.064;2023-06-10T14:45:39;10.07;;;5.20;;
73684;SDS011;61985;51.070;14.064;2023-06-10T14:48:05;7.25;;;5.35;;
73684;SDS011;61985;51.070;14.064;2023-06-10T14:50:32;8.23;;;5.63;;
73684;SDS011;61985;51.070;14.064;2023-06-10T14:52:58;8.32;;;5.68;;
73684;SDS011;61985;51.070;14.064;2023-06-10T14:55:23;9.05;;;5.40;;
73684;SDS011;61985;51.070;14.064;2023-06-10T14:57:49;7.45;;;5.00;;
73684;SDS011;61985;51.070;14.064;2023-06-10T15:00:15;10.30;;;5.32;;
73684;SDS011;61985;51.070;14.064;2023-06-10T15:02:44;8.23;;;5.35;;
73684;SDS011;61985;51.070;14.064;2023-06-10T15:05:09;10.27;;;5.97;;
73684;SDS011;61985;51.070;14.064;2023-06-10T15:07:35;8.65;;;5.28;;
73684;SDS011;61985;51.070;14.064;2023-06-10T15:10:00;7.90;;;5.40;;
73684;SDS011;61985;51.070;14.064;2023-06-10T15:12:25;13.32;;;5.20;;
73684;SDS011;61985;51.070;14.064;2023-06-10T15:14:52;8.52;;;5.10;;
73684;SDS011;61985;51.070;14.064;2023-06-10T15:17:18;9.40;;;5.38;;
73684;SDS011;61985;51.070;14.064;2023-06-10T15:19:43;8.20;;;5.55;;
73684;SDS011;61985;51.070;14.064;2023-06-10T15:22:09;7.97;;;5.00;;
73684;SDS011;61985;51.070;14.064;2023-06-10T15:24:36;7.60;;;5.05;;
73684;SDS011;61985;51.070;14.064;2023-06-10T15:27:01;10.93;;;5.70;;
73684;SDS011;61985;51.070;14.064;2023-06-10T15:29:27;11.05;;;5.88;;
73684;SDS011;61985;51.070;14.064;2023-06-10T15:31:52;8.23;;;5.25;;
73684;SDS011;61985;51.070;14.064;2023-06-10T15:34:18;7.85;;;5.15;;
73684;SDS011;61985;51.070;14.064;2023-06-10T15:36:43;8.60;;;5.43;;
73684;SDS011;61985;51.070;14.064;2023-06-10T15:39:08;11.23;;;5.32;;
73684;SDS011;61985;51.070;14.064;2023-06-10T15:41:34;10.70;;;5.30;;
73684;SDS011;61985;51.070;14.064;2023-06-10T15:44:00;7.45;;;5.10;;
73684;SDS011;61985;51.070;14.064;2023-06-10T15:46:26;8.73;;;5.45;;
73684;SDS011;61985;51.070;14.064;2023-06-10T15:48:54;7.82;;;4.95;;
73684;SDS011;61985;51.070;14.064;2023-06-10T15:51:20;8.70;;;4.80;;
73684;SDS011;61985;51.070;14.064;2023-06-10T15:53:45;8.80;;;4.57;;
73684;SDS011;61985;51.070;14.064;2023-06-10T15:56:12;7.50;;;5.13;;
73684;SDS011;61985;51.070;14.064;2023-06-10T15:58:37;9.98;;;5.10;;
73684;SDS011;61985;51.070;14.064;2023-06-10T16:01:03;7.82;;;4.78;;
73684;SDS011;61985;51.070;14.064;2023-06-10T16:03:28;9.00;;;4.70;;
73684;SDS011;61985;51.070;14.064;2023-06-10T16:05:53;8.57;;;4.63;;
73684;SDS011;61985;51.070;14.064;2023-06-10T16:08:19;6.97;;;4.75;;
73684;SDS011;61985;51.070;14.064;2023-06-10T16:10:44;10.77;;;5.00;;
73684;SDS011;61985;51.070;14.064;2023-06-10T16:13:09;11.20;;;4.95;;
73684;SDS011;61985;51.070;14.064;2023-06-10T16:15:35;10.77;;;4.85;;
73684;SDS011;61985;51.070;14.064;2023-06-10T16:18:01;9.60;;;5.45;;
73684;SDS011;61985;51.070;14.064;2023-06-10T16:20:26;6.82;;;4.88;;
73684;SDS011;61985;51.070;14.064;2023-06-10T16:22:51;8.60;;;4.82;;
73684;SDS011;61985;51.070;14.064;2023-06-10T16:25:17;9.27;;;5.00;;
73684;SDS011;61985;51.070;14.064;2023-06-10T16:27:42;9.25;;;5.00;;
73684;SDS011;61985;51.070;14.064;2023-06-10T16:30:08;8.85;;;5.28;;
73684;SDS011;61985;51.070;14.064;2023-06-10T16:32:33;8.10;;;5.07;;
73684;SDS011;61985;51.070;14.064;2023-06-10T16:34:59;9.07;;;4.45;;
73684;SDS011;61985;51.070;14.064;2023-06-10T16:37:24;11.95;;;4.70;;
73684;SDS011;61985;51.070;14.064;2023-06-10T16:39:50;10.98;;;5.10;;
73684;SDS011;61985;51.070;14.064;2023-06-10T16:42:16;9.38;;;4.90;;
73684;SDS011;61985;51.070;14.064;2023-06-10T16:44:41;7.82;;;4.80;;
73684;SDS011;61985;51.070;14.064;2023-06-10T16:47:06;9.10;;;5.00;;
73684;SDS011;61985;51.070;14.064;2023-06-10T16:49:32;9.65;;;5.40;;
73684;SDS011;61985;51.070;14.064;2023-06-10T16:51:59;8.63;;;4.80;;
73684;SDS011;61985;51.070;14.064;2023-06-10T16:54:24;12.88;;;6.30;;
73684;SDS011;61985;51.070;14.064;2023-06-10T16:56:49;7.90;;;4.90;;
73684;SDS011;61985;51.070;14.064;2023-06-10T16:59:15;7.43;;;4.75;;
73684;SDS011;61985;51.070;14.064;2023-06-10T17:01:41;14.02;;;5.40;;
73684;SDS011;61985;51.070;14.064;2023-06-10T17:04:07;11.05;;;5.70;;
73684;SDS011;61985;51.070;14.064;2023-06-10T17:06:32;13.15;;;4.97;;
73684;SDS011;61985;51.070;14.064;2023-06-10T17:08:57;9.40;;;4.93;;
73684;SDS011;61985;51.070;14.064;2023-06-10T17:11:23;8.00;;;5.05;;
73684;SDS011;61985;51.070;14.064;2023-06-10T17:13:49;9.77;;;5.22;;
73684;SDS011;61985;51.070;14.064;2023-06-10T17:16:14;12.98;;;4.93;;
73684;SDS011;61985;51.070;14.064;2023-06-10T17:18:40;7.72;;;5.00;;
73684;SDS011;61985;51.070;14.064;2023-06-10T17:21:05;11.13;;;5.28;;
73684;SDS011;61985;51.070;14.064;2023-06-10T17:23:31;6.45;;;4.47;;
73684;SDS011;61985;51.070;14.064;2023-06-10T17:25:56;9.18;;;4.82;;
73684;SDS011;61985;51.070;14.064;2023-06-10T17:28:21;8.88;;;4.80;;
73684;SDS011;61985;51.070;14.064;2023-06-10T17:30:47;8.00;;;4.88;;
73684;SDS011;61985;51.070;14.064;2023-06-10T17:33:12;11.52;;;5.03;;
73684;SDS011;61985;51.070;14.064;2023-06-10T17:35:38;9.48;;;5.55;;
73684;SDS011;61985;51.070;14.064;2023-06-10T17:38:03;11.45;;;5.65;;
73684;SDS011;61985;51.070;14.064;2023-06-10T17:40:28;8.25;;;4.60;;
73684;SDS011;61985;51.070;14.064;2023-06-10T17:42:54;8.35;;;4.82;;
73684;SDS011;61985;51.070;14.064;2023-06-10T17:45:19;10.90;;;5.10;;
73684;SDS011;61985;51.070;14.064;2023-06-10T17:47:45;7.05;;;4.60;;
73684;SDS011;61985;51.070;14.064;2023-06-10T17:50:10;7.90;;;4.60;;
73684;SDS011;61985;51.070;14.064;2023-06-10T17:52:36;8.77;;;4.80;;
73684;SDS011;61985;51.070;14.064;2023-06-10T17:55:01;6.13;;;4.32;;
73684;SDS011;61985;51.070;14.064;2023-06-10T17:57:27;8.55;;;4.68;;
73684;SDS011;61985;51.070;14.064;2023-06-10T17:59:55;7.05;;;4.50;;
73684;SDS011;61985;51.070;14.064;2023-06-10T18:02:21;10.43;;;4.43;;
73684;SDS011;61985;51.070;14.064;2023-06-10T18:04:46;10.52;;;5.20;;